CYNL

METAR CYNL 170600Z AUTO 26008KT 9SM OVC013 M16/M19 A3015 RMK AO1 PRESFR SLP276
METAR
LOCATION
CYNL
DATE - TIME
170600Z
WIND
260 TRUE @ 8 KNOTS
VISIBILITY
9SM
RUNWAY VISUAL RANGE
NOT REPORTED
WEATHER
CLOUDINESS
OVC013
TEMP / DEWPOINT
-16 ºC / -19 ºC
ALTIMETER
30.15 in. Hg
RECENT WEATHER
NOT REPORTED
WIND SHEAR
NOT REPORTED
REMARKS
RMK AO1 PRESFR SLP276
SEA LEVEL PRESSURE: hPa

CYNL

METAR CYNL 170500Z AUTO 26006KT 9SM OVC011 M16/M19 A3018 RMK AO1 PRESFR SLP287
METAR
LOCATION
CYNL
DATE - TIME
170500Z
WIND
260 TRUE @ 6 KNOTS
VISIBILITY
9SM
RUNWAY VISUAL RANGE
NOT REPORTED
WEATHER
CLOUDINESS
OVC011
TEMP / DEWPOINT
-16 ºC / -19 ºC
ALTIMETER
30.18 in. Hg
RECENT WEATHER
NOT REPORTED
WIND SHEAR
NOT REPORTED
REMARKS
RMK AO1 PRESFR SLP287
SEA LEVEL PRESSURE: hPa

CYNL

METAR CYNL 170400Z AUTO ///// 9SM SCT010 OVC013 M17/M20 A3020 RMK AO1 PRESFR SLP299
METAR
LOCATION
CYNL
DATE - TIME
170400Z
WIND
VISIBILITY
9SM
RUNWAY VISUAL RANGE
NOT REPORTED
WEATHER
CLOUDINESS
SCT010 OVC013
TEMP / DEWPOINT
-17 ºC / -20 ºC
ALTIMETER
30.20 in. Hg
RECENT WEATHER
NOT REPORTED
WIND SHEAR
NOT REPORTED
REMARKS
RMK AO1 PRESFR SLP299
SEA LEVEL PRESSURE: hPa

Your time UTC time
 
 
Weather data provided by AXYS Technologies Inc., www.axystechnologies.com
 
Station History